DAL1058 KATL-KPBI
Flight info
| Callsign | DAL1058 |
|---|---|
| Flight time | N/A |
| Altitude | 37000 |
| Route | SMLTZ3 WALET ZPLEN VUUDU1 |
| Aircraft | B738/M-SDE2E3FGHIRWXY/LB1 |
Departure
| Time | 2026-05-03 21:46 |
|---|---|
| Airport | Hartsfield Jackson Atlanta International Airport (KATL) |
Arrival
| Time | N/A |
|---|---|
| Airport | Palm Beach International Airport (KPBI) |
| Time | Latitude | Longitude | Altitude | Speed | Heading |
|---|---|---|---|---|---|
| 2026-05-03 21:10 | 33.63862 | -84.42983 | 1005 ft | 0 kts | 90° |
| 2026-05-03 21:18 | 33.63862 | -84.42985 | 1005 ft | 0 kts | 90° |
| 2026-05-03 21:18 | 33.63862 | -84.42986 | 1005 ft | 0 kts | 90° |
| 2026-05-03 21:18 | 33.63862 | -84.42987 | 1005 ft | 0 kts | 90° |
| 2026-05-03 21:19 | 33.63862 | -84.42989 | 1005 ft | 0 kts | 90° |
| 2026-05-03 21:19 | 33.63862 | -84.42990 | 1005 ft | 0 kts | 90° |
| 2026-05-03 21:19 | 33.63861 | -84.43003 | 1005 ft | 0 kts | 89° |
| 2026-05-03 21:35 | 33.63861 | -84.43004 | 1005 ft | 2 kts | 89° |
| 2026-05-03 21:35 | 33.63861 | -84.43030 | 1005 ft | 4 kts | 91° |
| 2026-05-03 21:35 | 33.63867 | -84.43057 | 1005 ft | 4 kts | 147° |
| 2026-05-03 21:35 | 33.63890 | -84.43064 | 1005 ft | 3 kts | 180° |
| 2026-05-03 21:36 | 33.63897 | -84.43064 | 1005 ft | 0 kts | 180° |
| 2026-05-03 21:39 | 33.63894 | -84.43064 | 1005 ft | 2 kts | 180° |
| 2026-05-03 21:39 | 33.63860 | -84.43063 | 1005 ft | 6 kts | 180° |
| 2026-05-03 21:39 | 33.63821 | -84.43063 | 1005 ft | 6 kts | 180° |
| 2026-05-03 21:40 | 33.63782 | -84.43064 | 1005 ft | 6 kts | 180° |
| 2026-05-03 21:40 | 33.63744 | -84.43064 | 1005 ft | 5 kts | 179° |
| 2026-05-03 21:40 | 33.63707 | -84.43059 | 1005 ft | 6 kts | 166° |
| 2026-05-03 21:40 | 33.63668 | -84.43013 | 1005 ft | 12 kts | 107° |
| 2026-05-03 21:41 | 33.63664 | -84.42873 | 1005 ft | 20 kts | 89° |
| 2026-05-03 21:41 | 33.63656 | -84.42703 | 1006 ft | 20 kts | 94° |
| 2026-05-03 21:41 | 33.63654 | -84.42538 | 1006 ft | 20 kts | 88° |
| 2026-05-03 21:41 | 33.63655 | -84.42378 | 1006 ft | 19 kts | 90° |
| 2026-05-03 21:42 | 33.63656 | -84.42223 | 1006 ft | 18 kts | 90° |
| 2026-05-03 21:42 | 33.63655 | -84.42073 | 1006 ft | 18 kts | 90° |
| 2026-05-03 21:42 | 33.63650 | -84.41929 | 1005 ft | 17 kts | 94° |
| 2026-05-03 21:42 | 33.63655 | -84.41790 | 1005 ft | 16 kts | 88° |
| 2026-05-03 21:43 | 33.63655 | -84.41656 | 1005 ft | 16 kts | 90° |
| 2026-05-03 21:43 | 33.63656 | -84.41527 | 1005 ft | 15 kts | 89° |
| 2026-05-03 21:43 | 33.63655 | -84.41403 | 1005 ft | 14 kts | 89° |
| 2026-05-03 21:43 | 33.63655 | -84.41285 | 1005 ft | 14 kts | 89° |
| 2026-05-03 21:44 | 33.63652 | -84.41172 | 1005 ft | 13 kts | 92° |
| 2026-05-03 21:44 | 33.63652 | -84.41075 | 1005 ft | 13 kts | 88° |
| 2026-05-03 21:44 | 33.63649 | -84.40970 | 1005 ft | 12 kts | 107° |
| 2026-05-03 21:44 | 33.63581 | -84.40917 | 1005 ft | 12 kts | 165° |
| 2026-05-03 21:45 | 33.63499 | -84.40915 | 1006 ft | 12 kts | 197° |
| 2026-05-03 21:45 | 33.63471 | -84.40996 | 1006 ft | 7 kts | 269° |
| 2026-05-03 21:45 | 33.63470 | -84.41034 | 1005 ft | 24 kts | 269° |
| 2026-05-03 21:45 | 33.63471 | -84.41537 | 1005 ft | 95 kts | 270° |
| 2026-05-03 21:46 | 33.63470 | -84.42594 | 1007 ft | 153 kts | 269° |
| 2026-05-03 21:46 | 33.63488 | -84.43885 | 1658 ft | 152 kts | 273° |
| 2026-05-03 21:46 | 33.63497 | -84.45212 | 2277 ft | 160 kts | 271° |
| 2026-05-03 21:46 | 33.63462 | -84.46555 | 2865 ft | 168 kts | 269° |
| 2026-05-03 21:47 | 33.63406 | -84.48076 | 3063 ft | 191 kts | 269° |
| 2026-05-03 21:47 | 33.63357 | -84.49746 | 3184 ft | 208 kts | 270° |
| 2026-05-03 21:47 | 33.63325 | -84.51521 | 3425 ft | 214 kts | 271° |
| 2026-05-03 21:47 | 33.63387 | -84.53310 | 3650 ft | 220 kts | 274° |
| 2026-05-03 21:48 | 33.63430 | -84.55063 | 4348 ft | 198 kts | 266° |
| 2026-05-03 21:48 | 33.63218 | -84.56697 | 4672 ft | 206 kts | 247° |
| 2026-05-03 21:48 | 33.62171 | -84.57927 | 4835 ft | 224 kts | 205° |
| 2026-05-03 21:48 | 33.60582 | -84.58210 | 4936 ft | 242 kts | 175° |
| 2026-05-03 21:49 | 33.58901 | -84.57608 | 5187 ft | 266 kts | 154° |
| 2026-05-03 21:49 | 33.57224 | -84.56490 | 5653 ft | 281 kts | 150° |
| 2026-05-03 21:49 | 33.55542 | -84.55291 | 6454 ft | 283 kts | 149° |
| 2026-05-03 21:49 | 33.53828 | -84.54064 | 7094 ft | 290 kts | 149° |
| 2026-05-03 21:50 | 33.52087 | -84.52829 | 7882 ft | 291 kts | 150° |
| 2026-05-03 21:50 | 33.50334 | -84.51598 | 8604 ft | 295 kts | 150° |
| 2026-05-03 21:50 | 33.48546 | -84.50353 | 9333 ft | 299 kts | 151° |
| 2026-05-03 21:50 | 33.46734 | -84.49101 | 10040 ft | 303 kts | 151° |
| 2026-05-03 21:51 | 33.44870 | -84.47819 | 10420 ft | 319 kts | 152° |
| 2026-05-03 21:51 | 33.42873 | -84.46452 | 10585 ft | 341 kts | 152° |
| 2026-05-03 21:51 | 33.40749 | -84.45003 | 10746 ft | 362 kts | 152° |
| 2026-05-03 21:51 | 33.38522 | -84.43485 | 11086 ft | 374 kts | 152° |
| 2026-05-03 21:52 | 33.36240 | -84.41930 | 11687 ft | 378 kts | 152° |
| 2026-05-03 21:52 | 33.33946 | -84.40366 | 12364 ft | 381 kts | 152° |
| 2026-05-03 21:52 | 33.31637 | -84.38793 | 13043 ft | 384 kts | 152° |
| 2026-05-03 21:52 | 33.29307 | -84.37207 | 13732 ft | 387 kts | 152° |
| 2026-05-03 21:53 | 33.26956 | -84.35608 | 14361 ft | 391 kts | 152° |
| 2026-05-03 21:53 | 33.24578 | -84.33992 | 14991 ft | 394 kts | 152° |
| 2026-05-03 21:53 | 33.22194 | -84.32358 | 15643 ft | 397 kts | 152° |
| 2026-05-03 21:53 | 33.19784 | -84.30704 | 16285 ft | 400 kts | 153° |
| 2026-05-03 21:54 | 33.17364 | -84.29052 | 16921 ft | 403 kts | 153° |
| 2026-05-03 21:54 | 33.14914 | -84.27389 | 17533 ft | 407 kts | 153° |
| 2026-05-03 21:54 | 33.12440 | -84.25719 | 18137 ft | 410 kts | 153° |
| 2026-05-03 21:54 | 33.10756 | -84.24585 | 18519 ft | 413 kts | 153° |
| 2026-05-03 21:55 | 33.08250 | -84.22898 | 19051 ft | 416 kts | 154° |
| 2026-05-03 21:55 | 33.05722 | -84.21197 | 19578 ft | 419 kts | 154° |
| 2026-05-03 21:55 | 33.03178 | -84.19487 | 20094 ft | 422 kts | 154° |
| 2026-05-03 21:55 | 33.00608 | -84.17766 | 20639 ft | 424 kts | 155° |
| 2026-05-03 21:56 | 32.97978 | -84.16320 | 21158 ft | 422 kts | 163° |
| 2026-05-03 21:56 | 32.95206 | -84.15164 | 21661 ft | 424 kts | 165° |
| 2026-05-03 21:56 | 32.92402 | -84.14050 | 22133 ft | 427 kts | 166° |
| 2026-05-03 21:56 | 32.89573 | -84.12933 | 22603 ft | 430 kts | 165° |
| 2026-05-03 21:57 | 32.86722 | -84.11797 | 23079 ft | 433 kts | 165° |
| 2026-05-03 21:57 | 32.83854 | -84.10639 | 23535 ft | 436 kts | 165° |
| 2026-05-03 21:57 | 32.80969 | -84.09463 | 23932 ft | 439 kts | 165° |
| 2026-05-03 21:57 | 32.78072 | -84.08275 | 24325 ft | 441 kts | 165° |
| 2026-05-03 21:58 | 32.75166 | -84.07080 | 24730 ft | 443 kts | 165° |
| 2026-05-03 21:58 | 32.72248 | -84.05879 | 25118 ft | 444 kts | 166° |
| 2026-05-03 21:58 | 32.69321 | -84.04676 | 25493 ft | 446 kts | 166° |
| 2026-05-03 21:58 | 32.66381 | -84.03469 | 25839 ft | 448 kts | 167° |
| 2026-05-03 21:59 | 32.63427 | -84.02258 | 26188 ft | 451 kts | 167° |
| 2026-05-03 21:59 | 32.60455 | -84.01041 | 26542 ft | 453 kts | 167° |
| 2026-05-03 21:59 | 32.57473 | -83.99820 | 26895 ft | 454 kts | 167° |
| 2026-05-03 21:59 | 32.54474 | -83.98593 | 27241 ft | 456 kts | 167° |
| 2026-05-03 22:00 | 32.51468 | -83.97364 | 27573 ft | 458 kts | 167° |
| 2026-05-03 22:00 | 32.48448 | -83.96131 | 27876 ft | 460 kts | 167° |
| 2026-05-03 22:00 | 32.45419 | -83.94894 | 28198 ft | 461 kts | 168° |
| 2026-05-03 22:00 | 32.42379 | -83.93654 | 28533 ft | 462 kts | 168° |
| 2026-05-03 22:01 | 32.39331 | -83.92411 | 28826 ft | 464 kts | 168° |
| 2026-05-03 22:01 | 32.36268 | -83.91164 | 29087 ft | 467 kts | 168° |
| 2026-05-03 22:01 | 32.33180 | -83.89977 | 29331 ft | 467 kts | 170° |
| 2026-05-03 22:01 | 32.30074 | -83.88863 | 29720 ft | 465 kts | 171° |
| 2026-05-03 22:02 | 32.26976 | -83.87779 | 30225 ft | 462 kts | 171° |
| 2026-05-03 22:02 | 32.23904 | -83.86708 | 30650 ft | 459 kts | 172° |
| 2026-05-03 22:02 | 32.20851 | -83.85637 | 31039 ft | 457 kts | 172° |
| 2026-05-03 22:02 | 32.17804 | -83.84562 | 31382 ft | 455 kts | 172° |
| 2026-05-03 22:03 | 32.14826 | -83.83504 | 31795 ft | 452 kts | 172° |
| 2026-05-03 22:03 | 32.11819 | -83.82433 | 32172 ft | 450 kts | 172° |
| 2026-05-03 22:03 | 32.08830 | -83.81369 | 32505 ft | 449 kts | 173° |
| 2026-05-03 22:03 | 32.05842 | -83.80306 | 32839 ft | 447 kts | 173° |
| 2026-05-03 22:04 | 32.02865 | -83.79246 | 33204 ft | 446 kts | 173° |
| 2026-05-03 22:04 | 31.99904 | -83.78193 | 33576 ft | 443 kts | 173° |
| 2026-05-03 22:04 | 31.96957 | -83.77146 | 33913 ft | 442 kts | 173° |
| 2026-05-03 22:04 | 31.94019 | -83.76104 | 34214 ft | 441 kts | 173° |
| 2026-05-03 22:05 | 31.91085 | -83.75064 | 34433 ft | 440 kts | 173° |
| 2026-05-03 22:05 | 31.88151 | -83.74027 | 34672 ft | 441 kts | 173° |
| 2026-05-03 22:05 | 31.85216 | -83.72988 | 34926 ft | 440 kts | 174° |
| 2026-05-03 22:05 | 31.82283 | -83.71951 | 35154 ft | 440 kts | 174° |
| 2026-05-03 22:06 | 31.79359 | -83.70917 | 35384 ft | 439 kts | 174° |
| 2026-05-03 22:06 | 31.76428 | -83.69882 | 35618 ft | 439 kts | 174° |
| 2026-05-03 22:06 | 31.73500 | -83.68848 | 35816 ft | 439 kts | 174° |
| 2026-05-03 22:06 | 31.70579 | -83.67815 | 36038 ft | 439 kts | 173° |
| 2026-05-03 22:07 | 31.67685 | -83.66541 | 36235 ft | 452 kts | 165° |
| 2026-05-03 22:07 | 31.64870 | -83.64845 | 36451 ft | 456 kts | 163° |
| 2026-05-03 22:07 | 31.62069 | -83.63087 | 36614 ft | 456 kts | 163° |
| 2026-05-03 22:07 | 31.59278 | -83.61321 | 36801 ft | 456 kts | 163° |
| 2026-05-03 22:08 | 31.56486 | -83.59559 | 37013 ft | 456 kts | 163° |
| 2026-05-03 22:08 | 31.53685 | -83.57805 | 37125 ft | 457 kts | 163° |
| 2026-05-03 22:08 | 31.48049 | -83.54315 | 37127 ft | 457 kts | 164° |
| 2026-05-03 22:09 | 31.42454 | -83.50868 | 37129 ft | 452 kts | 164° |
| 2026-05-03 22:10 | 31.34132 | -83.45764 | 37091 ft | 448 kts | 165° |
| 2026-05-03 22:10 | 31.28630 | -83.42398 | 37105 ft | 446 kts | 165° |
| 2026-05-03 22:11 | 31.23137 | -83.39031 | 37122 ft | 449 kts | 162° |
| 2026-05-03 22:11 | 31.20496 | -83.36947 | 37123 ft | 464 kts | 155° |
| 2026-05-03 22:11 | 31.17950 | -83.34601 | 37118 ft | 468 kts | 153° |
| 2026-05-03 22:12 | 31.12886 | -83.29869 | 37087 ft | 461 kts | 161° |
| 2026-05-03 22:12 | 31.10081 | -83.28350 | 37119 ft | 432 kts | 177° |
| 2026-05-03 22:12 | 31.07191 | -83.27710 | 37111 ft | 417 kts | 186° |
| 2026-05-03 22:12 | 31.04329 | -83.27570 | 37099 ft | 406 kts | 194° |
| 2026-05-03 22:13 | 31.01530 | -83.27794 | 37107 ft | 404 kts | 195° |
| 2026-05-03 22:13 | 30.95892 | -83.28230 | 37099 ft | 408 kts | 194° |
| 2026-05-03 22:14 | 30.90212 | -83.28626 | 37125 ft | 410 kts | 194° |
| 2026-05-03 22:14 | 30.84513 | -83.29013 | 37119 ft | 410 kts | 194° |
| 2026-05-03 22:15 | 30.78822 | -83.29402 | 37107 ft | 409 kts | 194° |
| 2026-05-03 22:15 | 30.73126 | -83.29696 | 37106 ft | 416 kts | 188° |
| 2026-05-03 22:15 | 30.70209 | -83.29152 | 37132 ft | 434 kts | 178° |
| 2026-05-03 22:16 | 30.67303 | -83.28038 | 37118 ft | 448 kts | 169° |
| 2026-05-03 22:16 | 30.61615 | -83.24912 | 37119 ft | 452 kts | 167° |
| 2026-05-03 22:17 | 30.55943 | -83.21797 | 37130 ft | 450 kts | 168° |
| 2026-05-03 22:17 | 30.50274 | -83.18732 | 37130 ft | 448 kts | 168° |
| 2026-05-03 22:18 | 30.44625 | -83.15699 | 37113 ft | 447 kts | 168° |
| 2026-05-03 22:18 | 30.38996 | -83.12683 | 37126 ft | 445 kts | 168° |
| 2026-05-03 22:19 | 30.33416 | -83.09698 | 37130 ft | 444 kts | 168° |
| 2026-05-03 22:19 | 30.27811 | -83.06702 | 37136 ft | 443 kts | 168° |
| 2026-05-03 22:20 | 30.22218 | -83.03716 | 37123 ft | 443 kts | 168° |
| 2026-05-03 22:20 | 30.16624 | -83.00732 | 37116 ft | 442 kts | 168° |
| 2026-05-03 22:21 | 30.11027 | -82.97752 | 37124 ft | 443 kts | 168° |
| 2026-05-03 22:21 | 30.05415 | -82.94762 | 37122 ft | 445 kts | 168° |
| 2026-05-03 22:22 | 29.99790 | -82.91771 | 37117 ft | 446 kts | 168° |
| 2026-05-03 22:22 | 29.94157 | -82.88780 | 37114 ft | 447 kts | 168° |
| 2026-05-03 22:23 | 29.88509 | -82.85785 | 37087 ft | 446 kts | 168° |
| 2026-05-03 22:23 | 29.82861 | -82.82795 | 37093 ft | 447 kts | 168° |
| 2026-05-03 22:24 | 29.77194 | -82.79801 | 37108 ft | 448 kts | 168° |
| 2026-05-03 22:24 | 29.71523 | -82.76806 | 37086 ft | 448 kts | 168° |
| 2026-05-03 22:25 | 29.65856 | -82.73817 | 37092 ft | 448 kts | 168° |
| 2026-05-03 22:25 | 29.60227 | -82.70851 | 37077 ft | 448 kts | 169° |
| 2026-05-03 22:26 | 29.54565 | -82.67873 | 37089 ft | 447 kts | 169° |
| 2026-05-03 22:26 | 29.48693 | -82.64789 | 37092 ft | 447 kts | 169° |
| 2026-05-03 22:27 | 29.43230 | -82.61928 | 37107 ft | 452 kts | 169° |
| 2026-05-03 22:27 | 29.37476 | -82.58917 | 37099 ft | 457 kts | 168° |
| 2026-05-03 22:28 | 29.31677 | -82.55881 | 37030 ft | 459 kts | 168° |
| 2026-05-03 22:28 | 29.25858 | -82.52873 | 37080 ft | 454 kts | 173° |
| 2026-05-03 22:28 | 29.22894 | -82.52065 | 37124 ft | 429 kts | 185° |
| 2026-05-03 22:29 | 29.19934 | -82.51582 | 37077 ft | 431 kts | 184° |